Aérodrome :
LOGIN :

S'inscrire | Disclaimer

   EN    FR    IT 

 










Légende :    VFR   VFR Marginal   IFR   IFR Intensif   IFR Très Intensif
Visi : 
Plafond : 
>= 8 km
>= 3000ft
5 à 8 km
1000 à 3000 ft
1500m à 5 km
500 à 1000 ft
800 à 1500m
200 à 500 ft
< 800m
< 200 ft
Symboles :   Orages  Brouillard  Fortes neiges  Fortes précipitations  Vent > 20 kt
SIGMETs :   Divers  Orages  Givrage  Turbulence  Onde Orograph.  Cendres Volcan.







- Altitude de l'aérodrome : 102 ft
- Code IATA : EXT
- Voir les cartes d'approche


EGTE - Exeter

DERNIER METAR :
  • 241520Z 03012KT 9000 BKN019 10/06 Q1028

METARs EXPIRÉS :
  • 241450Z 03014KT 9000 BKN019 10/07 Q1028
  • 241420Z 03011KT 7000 BKN019 09/06 Q1028
  • 241350Z 03010KT 8000 BKN019 09/06 Q1028
  • 241320Z 03013KT 7000 BKN019 09/06 Q1028
  • 241250Z 04009KT 8000 BKN018 08/06 Q1028

TAF TAF EGTE
Valide du 24 à 15h jusqu'au 25 à 00h UTC


241356Z 2415/2424 04012KT 9999 FEW020 SCT030
TEMPO 2415/2417 BKN014
PROB30
TEMPO 2415/2424 8000
Pas de NOTAMs connus pour ce terrain.
2 SIGMETs publiés pour la FIR London (EGTT) :
 
Turbulence forte
EGTT SIGMET 04 VALID 241500/241900 EGRR
EGTT LONDON FIR SEV TURB FCST S OF N5200 AND E OF W00400 FL180/320 MOV W 15KT NC=
Turbulence forte
EGTT SIGMET 03 VALID 241100/241500 EGRR
EGTT LONDON FIR SEV TURB FCST S OF N5157 AND E OF W00312 FL200/350 MOV W 25KT NC=



MET'MAP, la Météo Aéronautique d'un coup d'oeil ! - Copyright ORBIFLY Décembre 2007 - Disclaimer

ORBIFLY MET'MAP TEAM :

Programmation & Développement : Alexandra Zaïnal
Conception & Développement : Baudouin d'Aumeries
Co-Programmation & Développement : Marc-Olivier Méhu
Soutien technique & logistique : Manuel Goepfert

Contact : metmap@orbifly.com




SOURCES & CREDITS :

   NOAA